sensor_id;sensor_type;location;lat;lon;timestamp;P1;durP1;ratioP1;P2;durP2;ratioP2
51566;SDS011;37657;53.182;5.638;2023-02-28T00:02:11;10.65;;;4.43;;
51566;SDS011;37657;53.182;5.638;2023-02-28T00:04:37;7.25;;;4.70;;
51566;SDS011;37657;53.182;5.638;2023-02-28T00:07:02;7.28;;;3.60;;
51566;SDS011;37657;53.182;5.638;2023-02-28T00:09:28;10.82;;;4.35;;
51566;SDS011;37657;53.182;5.638;2023-02-28T00:11:53;9.43;;;4.15;;
51566;SDS011;37657;53.182;5.638;2023-02-28T00:14:19;9.60;;;4.43;;
51566;SDS011;37657;53.182;5.638;2023-02-28T00:16:44;8.63;;;4.00;;
51566;SDS011;37657;53.182;5.638;2023-02-28T00:19:10;7.35;;;3.80;;
51566;SDS011;37657;53.182;5.638;2023-02-28T00:21:38;7.20;;;3.28;;
51566;SDS011;37657;53.182;5.638;2023-02-28T00:24:05;14.82;;;4.25;;
51566;SDS011;37657;53.182;5.638;2023-02-28T00:26:31;10.63;;;4.07;;
51566;SDS011;37657;53.182;5.638;2023-02-28T00:28:57;6.22;;;4.00;;
51566;SDS011;37657;53.182;5.638;2023-02-28T00:31:23;6.43;;;3.75;;
51566;SDS011;37657;53.182;5.638;2023-02-28T00:33:48;5.68;;;4.30;;
51566;SDS011;37657;53.182;5.638;2023-02-28T00:36:15;10.38;;;5.03;;
51566;SDS011;37657;53.182;5.638;2023-02-28T00:38:41;6.20;;;3.90;;
51566;SDS011;37657;53.182;5.638;2023-02-28T00:41:07;6.95;;;3.25;;
51566;SDS011;37657;53.182;5.638;2023-02-28T00:43:33;5.82;;;3.20;;
51566;SDS011;37657;53.182;5.638;2023-02-28T00:45:59;9.00;;;4.30;;
51566;SDS011;37657;53.182;5.638;2023-02-28T00:48:25;5.43;;;3.45;;
51566;SDS011;37657;53.182;5.638;2023-02-28T00:50:51;7.43;;;3.78;;
51566;SDS011;37657;53.182;5.638;2023-02-28T00:53:16;12.63;;;4.93;;
51566;SDS011;37657;53.182;5.638;2023-02-28T00:55:42;6.80;;;4.10;;
51566;SDS011;37657;53.182;5.638;2023-02-28T00:58:08;7.13;;;4.10;;
51566;SDS011;37657;53.182;5.638;2023-02-28T01:00:33;9.77;;;4.85;;
51566;SDS011;37657;53.182;5.638;2023-02-28T01:02:59;11.98;;;4.72;;
51566;SDS011;37657;53.182;5.638;2023-02-28T01:05:24;6.13;;;3.35;;
51566;SDS011;37657;53.182;5.638;2023-02-28T01:07:50;7.00;;;4.00;;
51566;SDS011;37657;53.182;5.638;2023-02-28T01:10:15;7.20;;;3.50;;
51566;SDS011;37657;53.182;5.638;2023-02-28T01:12:41;7.95;;;4.30;;
51566;SDS011;37657;53.182;5.638;2023-02-28T01:15:09;6.70;;;3.90;;
51566;SDS011;37657;53.182;5.638;2023-02-28T01:17:35;6.25;;;3.75;;
51566;SDS011;37657;53.182;5.638;2023-02-28T01:20:02;7.60;;;5.28;;
51566;SDS011;37657;53.182;5.638;2023-02-28T01:22:28;7.20;;;4.63;;
51566;SDS011;37657;53.182;5.638;2023-02-28T01:24:54;9.35;;;4.82;;
51566;SDS011;37657;53.182;5.638;2023-02-28T01:27:20;10.90;;;3.63;;
51566;SDS011;37657;53.182;5.638;2023-02-28T01:29:45;6.45;;;3.00;;
51566;SDS011;37657;53.182;5.638;2023-02-28T01:32:11;11.02;;;3.83;;
51566;SDS011;37657;53.182;5.638;2023-02-28T01:34:36;10.40;;;3.90;;
51566;SDS011;37657;53.182;5.638;2023-02-28T01:37:02;4.90;;;3.72;;
51566;SDS011;37657;53.182;5.638;2023-02-28T01:39:28;13.85;;;3.85;;
51566;SDS011;37657;53.182;5.638;2023-02-28T01:41:54;10.35;;;3.65;;
51566;SDS011;37657;53.182;5.638;2023-02-28T01:47:21;9.93;;;3.88;;
51566;SDS011;37657;53.182;5.638;2023-02-28T01:49:49;7.30;;;3.20;;
51566;SDS011;37657;53.182;5.638;2023-02-28T01:52:16;15.05;;;3.40;;
51566;SDS011;37657;53.182;5.638;2023-02-28T01:54:44;28.23;;;4.85;;
51566;SDS011;37657;53.182;5.638;2023-02-28T01:57:16;4.95;;;3.20;;
51566;SDS011;37657;53.182;5.638;2023-02-28T01:59:46;6.65;;;3.53;;
51566;SDS011;37657;53.182;5.638;2023-02-28T02:02:17;6.53;;;3.47;;
51566;SDS011;37657;53.182;5.638;2023-02-28T02:05:03;6.47;;;4.00;;
51566;SDS011;37657;53.182;5.638;2023-02-28T02:07:33;8.63;;;3.70;;
51566;SDS011;37657;53.182;5.638;2023-02-28T02:10:03;6.63;;;4.05;;
51566;SDS011;37657;53.182;5.638;2023-02-28T02:12:37;9.60;;;3.78;;
51566;SDS011;37657;53.182;5.638;2023-02-28T02:18:19;9.85;;;3.95;;
51566;SDS011;37657;53.182;5.638;2023-02-28T02:24:17;5.47;;;2.53;;
51566;SDS011;37657;53.182;5.638;2023-02-28T02:30:12;10.18;;;3.13;;
51566;SDS011;37657;53.182;5.638;2023-02-28T02:32:59;8.07;;;3.33;;
51566;SDS011;37657;53.182;5.638;2023-02-28T02:35:37;5.75;;;3.20;;
51566;SDS011;37657;53.182;5.638;2023-02-28T02:47:09;7.00;;;3.92;;
51566;SDS011;37657;53.182;5.638;2023-02-28T02:49:39;7.80;;;3.13;;
51566;SDS011;37657;53.182;5.638;2023-02-28T02:52:08;5.72;;;3.40;;
51566;SDS011;37657;53.182;5.638;2023-02-28T02:54:38;5.53;;;3.80;;
51566;SDS011;37657;53.182;5.638;2023-02-28T02:57:09;11.77;;;3.40;;
51566;SDS011;37657;53.182;5.638;2023-02-28T02:59:40;6.60;;;2.92;;
51566;SDS011;37657;53.182;5.638;2023-02-28T03:02:07;4.45;;;3.33;;
51566;SDS011;37657;53.182;5.638;2023-02-28T03:04:42;4.82;;;3.20;;
51566;SDS011;37657;53.182;5.638;2023-02-28T03:07:14;6.05;;;3.40;;
51566;SDS011;37657;53.182;5.638;2023-02-28T03:09:49;6.15;;;3.97;;
51566;SDS011;37657;53.182;5.638;2023-02-28T03:12:16;7.03;;;4.03;;
51566;SDS011;37657;53.182;5.638;2023-02-28T03:17:43;8.98;;;4.05;;
51566;SDS011;37657;53.182;5.638;2023-02-28T03:20:27;7.85;;;3.95;;
51566;SDS011;37657;53.182;5.638;2023-02-28T03:23:07;6.65;;;3.75;;
51566;SDS011;37657;53.182;5.638;2023-02-28T03:25:56;8.02;;;4.20;;
51566;SDS011;37657;53.182;5.638;2023-02-28T03:28:34;4.68;;;3.72;;
51566;SDS011;37657;53.182;5.638;2023-02-28T03:31:21;6.78;;;4.78;;
51566;SDS011;37657;53.182;5.638;2023-02-28T03:34:09;6.93;;;4.45;;
51566;SDS011;37657;53.182;5.638;2023-02-28T03:36:39;6.85;;;4.63;;
51566;SDS011;37657;53.182;5.638;2023-02-28T03:39:11;4.57;;;3.40;;
51566;SDS011;37657;53.182;5.638;2023-02-28T03:42:00;7.60;;;4.38;;
51566;SDS011;37657;53.182;5.638;2023-02-28T03:44:34;6.47;;;4.10;;
51566;SDS011;37657;53.182;5.638;2023-02-28T03:47:04;5.07;;;3.60;;
51566;SDS011;37657;53.182;5.638;2023-02-28T03:49:38;4.93;;;3.53;;
51566;SDS011;37657;53.182;5.638;2023-02-28T03:52:08;8.10;;;3.97;;
51566;SDS011;37657;53.182;5.638;2023-02-28T03:54:36;7.68;;;4.32;;
51566;SDS011;37657;53.182;5.638;2023-02-28T04:01:01;3.92;;;3.30;;
51566;SDS011;37657;53.182;5.638;2023-02-28T04:03:07;4.90;;;3.50;;
51566;SDS011;37657;53.182;5.638;2023-02-28T04:05:33;4.78;;;3.30;;
51566;SDS011;37657;53.182;5.638;2023-02-28T04:08:15;7.05;;;3.13;;
51566;SDS011;37657;53.182;5.638;2023-02-28T04:10:41;4.13;;;2.88;;
51566;SDS011;37657;53.182;5.638;2023-02-28T04:13:10;13.63;;;3.92;;
51566;SDS011;37657;53.182;5.638;2023-02-28T04:15:35;3.17;;;2.65;;
51566;SDS011;37657;53.182;5.638;2023-02-28T04:18:01;4.63;;;3.60;;
51566;SDS011;37657;53.182;5.638;2023-02-28T04:20:27;5.85;;;3.65;;
51566;SDS011;37657;53.182;5.638;2023-02-28T04:22:53;4.97;;;3.30;;
51566;SDS011;37657;53.182;5.638;2023-02-28T04:25:18;6.22;;;3.47;;
51566;SDS011;37657;53.182;5.638;2023-02-28T04:27:44;19.60;;;4.07;;
51566;SDS011;37657;53.182;5.638;2023-02-28T04:30:11;6.20;;;3.88;;
51566;SDS011;37657;53.182;5.638;2023-02-28T04:32:37;6.55;;;3.33;;
51566;SDS011;37657;53.182;5.638;2023-02-28T04:35:03;4.15;;;2.75;;
51566;SDS011;37657;53.182;5.638;2023-02-28T04:37:29;5.38;;;2.38;;
51566;SDS011;37657;53.182;5.638;2023-02-28T04:39:54;9.93;;;3.65;;
51566;SDS011;37657;53.182;5.638;2023-02-28T04:42:20;3.40;;;2.35;;
51566;SDS011;37657;53.182;5.638;2023-02-28T04:44:45;5.15;;;2.38;;
51566;SDS011;37657;53.182;5.638;2023-02-28T04:47:12;5.10;;;2.83;;
51566;SDS011;37657;53.182;5.638;2023-02-28T04:49:37;5.97;;;2.67;;
51566;SDS011;37657;53.182;5.638;2023-02-28T04:52:04;4.22;;;2.58;;
51566;SDS011;37657;53.182;5.638;2023-02-28T04:54:29;5.43;;;3.05;;
51566;SDS011;37657;53.182;5.638;2023-02-28T04:56:55;5.22;;;2.45;;
51566;SDS011;37657;53.182;5.638;2023-02-28T04:59:20;4.85;;;2.28;;
51566;SDS011;37657;53.182;5.638;2023-02-28T05:01:47;5.60;;;2.42;;
51566;SDS011;37657;53.182;5.638;2023-02-28T05:04:13;6.97;;;3.60;;
51566;SDS011;37657;53.182;5.638;2023-02-28T05:06:39;8.45;;;3.70;;
51566;SDS011;37657;53.182;5.638;2023-02-28T05:09:05;5.53;;;2.13;;
51566;SDS011;37657;53.182;5.638;2023-02-28T05:11:31;8.57;;;3.85;;
51566;SDS011;37657;53.182;5.638;2023-02-28T05:14:01;5.43;;;2.83;;
51566;SDS011;37657;53.182;5.638;2023-02-28T05:16:28;5.40;;;2.55;;
51566;SDS011;37657;53.182;5.638;2023-02-28T05:18:54;6.25;;;3.05;;
51566;SDS011;37657;53.182;5.638;2023-02-28T05:24:02;4.18;;;2.40;;
51566;SDS011;37657;53.182;5.638;2023-02-28T05:26:30;7.85;;;3.03;;
51566;SDS011;37657;53.182;5.638;2023-02-28T05:28:56;7.80;;;2.80;;
51566;SDS011;37657;53.182;5.638;2023-02-28T05:31:22;7.75;;;3.05;;
51566;SDS011;37657;53.182;5.638;2023-02-28T05:33:48;4.90;;;2.60;;
51566;SDS011;37657;53.182;5.638;2023-02-28T05:36:14;10.15;;;2.72;;
51566;SDS011;37657;53.182;5.638;2023-02-28T05:38:39;7.72;;;3.25;;
51566;SDS011;37657;53.182;5.638;2023-02-28T05:41:06;8.70;;;2.95;;
51566;SDS011;37657;53.182;5.638;2023-02-28T05:43:35;5.65;;;3.15;;
51566;SDS011;37657;53.182;5.638;2023-02-28T05:46:05;4.53;;;2.28;;
51566;SDS011;37657;53.182;5.638;2023-02-28T05:48:33;6.07;;;2.30;;
51566;SDS011;37657;53.182;5.638;2023-02-28T05:50:59;5.15;;;2.03;;
51566;SDS011;37657;53.182;5.638;2023-02-28T05:53:25;7.57;;;2.67;;
51566;SDS011;37657;53.182;5.638;2023-02-28T05:55:51;7.18;;;2.72;;
51566;SDS011;37657;53.182;5.638;2023-02-28T05:58:17;7.18;;;3.13;;
51566;SDS011;37657;53.182;5.638;2023-02-28T06:00:42;7.03;;;3.67;;
51566;SDS011;37657;53.182;5.638;2023-02-28T06:03:08;14.80;;;3.78;;
51566;SDS011;37657;53.182;5.638;2023-02-28T06:05:33;4.75;;;2.85;;
51566;SDS011;37657;53.182;5.638;2023-02-28T06:07:59;6.05;;;3.00;;
51566;SDS011;37657;53.182;5.638;2023-02-28T06:10:24;8.10;;;3.78;;
51566;SDS011;37657;53.182;5.638;2023-02-28T06:12:50;6.47;;;3.90;;
51566;SDS011;37657;53.182;5.638;2023-02-28T06:15:15;9.20;;;3.63;;
51566;SDS011;37657;53.182;5.638;2023-02-28T06:17:42;5.10;;;2.90;;
51566;SDS011;37657;53.182;5.638;2023-02-28T06:20:09;23.02;;;5.25;;
51566;SDS011;37657;53.182;5.638;2023-02-28T06:22:37;6.40;;;3.65;;
51566;SDS011;37657;53.182;5.638;2023-02-28T06:25:04;9.10;;;3.65;;
51566;SDS011;37657;53.182;5.638;2023-02-28T06:27:31;7.97;;;3.78;;
51566;SDS011;37657;53.182;5.638;2023-02-28T06:29:57;5.72;;;2.50;;
51566;SDS011;37657;53.182;5.638;2023-02-28T06:32:22;7.38;;;3.10;;
51566;SDS011;37657;53.182;5.638;2023-02-28T06:34:48;4.30;;;2.72;;
51566;SDS011;37657;53.182;5.638;2023-02-28T06:37:15;9.57;;;3.25;;
51566;SDS011;37657;53.182;5.638;2023-02-28T06:39:41;12.82;;;4.47;;
51566;SDS011;37657;53.182;5.638;2023-02-28T06:42:06;6.97;;;3.85;;
51566;SDS011;37657;53.182;5.638;2023-02-28T06:44:32;11.27;;;3.83;;
51566;SDS011;37657;53.182;5.638;2023-02-28T06:46:59;7.70;;;5.53;;
51566;SDS011;37657;53.182;5.638;2023-02-28T06:49:30;7.10;;;5.00;;
51566;SDS011;37657;53.182;5.638;2023-02-28T06:51:56;9.00;;;6.85;;
51566;SDS011;37657;53.182;5.638;2023-02-28T06:54:21;6.70;;;5.93;;
51566;SDS011;37657;53.182;5.638;2023-02-28T06:56:47;10.95;;;7.03;;
51566;SDS011;37657;53.182;5.638;2023-02-28T06:59:13;8.23;;;7.43;;
51566;SDS011;37657;53.182;5.638;2023-02-28T07:01:39;6.93;;;6.05;;
51566;SDS011;37657;53.182;5.638;2023-02-28T07:04:05;10.38;;;8.65;;
51566;SDS011;37657;53.182;5.638;2023-02-28T07:06:31;13.20;;;7.93;;
51566;SDS011;37657;53.182;5.638;2023-02-28T07:08:57;8.20;;;7.35;;
51566;SDS011;37657;53.182;5.638;2023-02-28T07:11:24;6.28;;;5.53;;
51566;SDS011;37657;53.182;5.638;2023-02-28T07:13:54;8.15;;;6.82;;
51566;SDS011;37657;53.182;5.638;2023-02-28T07:16:21;12.00;;;8.38;;
51566;SDS011;37657;53.182;5.638;2023-02-28T07:18:47;12.23;;;7.93;;
51566;SDS011;37657;53.182;5.638;2023-02-28T07:21:13;8.35;;;6.90;;
51566;SDS011;37657;53.182;5.638;2023-02-28T07:23:39;7.90;;;7.10;;
51566;SDS011;37657;53.182;5.638;2023-02-28T07:26:06;10.00;;;8.60;;
51566;SDS011;37657;53.182;5.638;2023-02-28T07:28:37;10.20;;;7.78;;
51566;SDS011;37657;53.182;5.638;2023-02-28T07:31:06;12.25;;;9.32;;
51566;SDS011;37657;53.182;5.638;2023-02-28T07:33:32;7.95;;;7.15;;
51566;SDS011;37657;53.182;5.638;2023-02-28T07:36:08;10.45;;;8.00;;
51566;SDS011;37657;53.182;5.638;2023-02-28T07:38:40;11.95;;;8.27;;
51566;SDS011;37657;53.182;5.638;2023-02-28T07:41:07;9.65;;;8.20;;
51566;SDS011;37657;53.182;5.638;2023-02-28T07:43:33;10.43;;;8.77;;
51566;SDS011;37657;53.182;5.638;2023-02-28T07:46:07;9.52;;;8.63;;
51566;SDS011;37657;53.182;5.638;2023-02-28T07:48:34;10.25;;;7.97;;
51566;SDS011;37657;53.182;5.638;2023-02-28T07:51:00;10.20;;;9.15;;
51566;SDS011;37657;53.182;5.638;2023-02-28T07:53:26;9.75;;;8.70;;
51566;SDS011;37657;53.182;5.638;2023-02-28T07:55:56;12.63;;;9.43;;
51566;SDS011;37657;53.182;5.638;2023-02-28T07:58:22;12.80;;;11.30;;
51566;SDS011;37657;53.182;5.638;2023-02-28T08:00:48;13.73;;;11.65;;
51566;SDS011;37657;53.182;5.638;2023-02-28T08:03:14;14.13;;;11.23;;
51566;SDS011;37657;53.182;5.638;2023-02-28T08:05:40;12.80;;;11.50;;
51566;SDS011;37657;53.182;5.638;2023-02-28T08:08:06;11.07;;;9.70;;
51566;SDS011;37657;53.182;5.638;2023-02-28T08:10:33;13.32;;;11.65;;
51566;SDS011;37657;53.182;5.638;2023-02-28T08:12:58;10.60;;;9.60;;
51566;SDS011;37657;53.182;5.638;2023-02-28T08:15:24;13.00;;;11.70;;
51566;SDS011;37657;53.182;5.638;2023-02-28T08:17:49;14.57;;;12.25;;
51566;SDS011;37657;53.182;5.638;2023-02-28T08:20:15;11.75;;;10.65;;
51566;SDS011;37657;53.182;5.638;2023-02-28T08:22:40;12.48;;;11.25;;
51566;SDS011;37657;53.182;5.638;2023-02-28T08:25:07;13.88;;;12.20;;
51566;SDS011;37657;53.182;5.638;2023-02-28T08:27:33;12.30;;;10.98;;
51566;SDS011;37657;53.182;5.638;2023-02-28T08:29:59;11.95;;;10.27;;
51566;SDS011;37657;53.182;5.638;2023-02-28T08:32:24;16.08;;;13.00;;
51566;SDS011;37657;53.182;5.638;2023-02-28T08:34:50;12.43;;;11.13;;
51566;SDS011;37657;53.182;5.638;2023-02-28T08:37:16;14.75;;;13.13;;
51566;SDS011;37657;53.182;5.638;2023-02-28T08:39:41;14.05;;;12.65;;
51566;SDS011;37657;53.182;5.638;2023-02-28T08:42:07;14.52;;;13.13;;
51566;SDS011;37657;53.182;5.638;2023-02-28T08:44:32;12.20;;;11.20;;
51566;SDS011;37657;53.182;5.638;2023-02-28T08:46:58;13.90;;;12.60;;
51566;SDS011;37657;53.182;5.638;2023-02-28T08:49:24;13.52;;;11.23;;
51566;SDS011;37657;53.182;5.638;2023-02-28T08:51:49;13.68;;;12.27;;
51566;SDS011;37657;53.182;5.638;2023-02-28T08:54:15;14.95;;;11.80;;
51566;SDS011;37657;53.182;5.638;2023-02-28T08:56:45;11.13;;;10.10;;
51566;SDS011;37657;53.182;5.638;2023-02-28T08:59:12;15.30;;;13.80;;
51566;SDS011;37657;53.182;5.638;2023-02-28T09:01:38;15.77;;;12.23;;
51566;SDS011;37657;53.182;5.638;2023-02-28T09:04:04;15.73;;;14.00;;
51566;SDS011;37657;53.182;5.638;2023-02-28T09:06:32;14.02;;;12.63;;
51566;SDS011;37657;53.182;5.638;2023-02-28T09:08:58;16.52;;;13.55;;
51566;SDS011;37657;53.182;5.638;2023-02-28T09:11:24;17.20;;;13.25;;
51566;SDS011;37657;53.182;5.638;2023-02-28T09:13:50;18.40;;;14.68;;
51566;SDS011;37657;53.182;5.638;2023-02-28T09:16:16;16.90;;;15.35;;
51566;SDS011;37657;53.182;5.638;2023-02-28T09:18:42;15.50;;;13.93;;
51566;SDS011;37657;53.182;5.638;2023-02-28T09:21:09;19.33;;;15.65;;
51566;SDS011;37657;53.182;5.638;2023-02-28T09:23:38;16.60;;;13.15;;
51566;SDS011;37657;53.182;5.638;2023-02-28T09:26:05;16.33;;;14.07;;
51566;SDS011;37657;53.182;5.638;2023-02-28T09:28:31;17.70;;;14.75;;
51566;SDS011;37657;53.182;5.638;2023-02-28T09:30:57;16.92;;;15.30;;
51566;SDS011;37657;53.182;5.638;2023-02-28T09:33:24;17.55;;;15.13;;
51566;SDS011;37657;53.182;5.638;2023-02-28T09:35:50;17.58;;;14.25;;
51566;SDS011;37657;53.182;5.638;2023-02-28T09:38:22;18.85;;;14.45;;
51566;SDS011;37657;53.182;5.638;2023-02-28T09:40:51;18.95;;;14.23;;
51566;SDS011;37657;53.182;5.638;2023-02-28T09:43:26;16.58;;;14.85;;
51566;SDS011;37657;53.182;5.638;2023-02-28T09:45:59;18.92;;;16.90;;
51566;SDS011;37657;53.182;5.638;2023-02-28T09:48:35;19.08;;;17.08;;
51566;SDS011;37657;53.182;5.638;2023-02-28T09:51:14;15.20;;;13.68;;
51566;SDS011;37657;53.182;5.638;2023-02-28T09:53:50;17.17;;;14.77;;
51566;SDS011;37657;53.182;5.638;2023-02-28T09:56:20;17.42;;;15.57;;
51566;SDS011;37657;53.182;5.638;2023-02-28T09:58:54;15.48;;;13.82;;
51566;SDS011;37657;53.182;5.638;2023-02-28T10:01:25;16.25;;;14.52;;
51566;SDS011;37657;53.182;5.638;2023-02-28T10:06:49;12.07;;;10.75;;
51566;SDS011;37657;53.182;5.638;2023-02-28T10:09:23;14.57;;;12.00;;
51566;SDS011;37657;53.182;5.638;2023-02-28T10:11:52;14.18;;;11.93;;
51566;SDS011;37657;53.182;5.638;2023-02-28T10:14:22;12.07;;;10.00;;
51566;SDS011;37657;53.182;5.638;2023-02-28T10:17:01;14.57;;;13.18;;
51566;SDS011;37657;53.182;5.638;2023-02-28T10:22:53;13.30;;;11.68;;
51566;SDS011;37657;53.182;5.638;2023-02-28T10:25:32;11.80;;;9.67;;
51566;SDS011;37657;53.182;5.638;2023-02-28T10:28:01;12.93;;;11.32;;
51566;SDS011;37657;53.182;5.638;2023-02-28T10:30:33;11.45;;;10.38;;
51566;SDS011;37657;53.182;5.638;2023-02-28T10:32:59;10.75;;;9.55;;
51566;SDS011;37657;53.182;5.638;2023-02-28T10:35:25;13.70;;;11.25;;
51566;SDS011;37657;53.182;5.638;2023-02-28T10:37:59;13.38;;;10.10;;
51566;SDS011;37657;53.182;5.638;2023-02-28T10:40:35;12.88;;;9.98;;
51566;SDS011;37657;53.182;5.638;2023-02-28T10:45:38;11.75;;;9.38;;
51566;SDS011;37657;53.182;5.638;2023-02-28T10:48:05;12.35;;;10.85;;
51566;SDS011;37657;53.182;5.638;2023-02-28T10:50:52;15.50;;;10.93;;
51566;SDS011;37657;53.182;5.638;2023-02-28T11:03:49;9.98;;;8.15;;
51566;SDS011;37657;53.182;5.638;2023-02-28T11:06:26;12.73;;;9.32;;
51566;SDS011;37657;53.182;5.638;2023-02-28T11:08:57;12.75;;;7.82;;
51566;SDS011;37657;53.182;5.638;2023-02-28T11:11:25;9.52;;;8.57;;
51566;SDS011;37657;53.182;5.638;2023-02-28T11:13:53;14.57;;;8.85;;
51566;SDS011;37657;53.182;5.638;2023-02-28T11:16:21;8.80;;;7.85;;
51566;SDS011;37657;53.182;5.638;2023-02-28T11:18:58;9.93;;;8.93;;
51566;SDS011;37657;53.182;5.638;2023-02-28T11:24:44;8.13;;;6.45;;
51566;SDS011;37657;53.182;5.638;2023-02-28T11:26:55;7.78;;;5.47;;
51566;SDS011;37657;53.182;5.638;2023-02-28T11:29:22;8.88;;;7.47;;
51566;SDS011;37657;53.182;5.638;2023-02-28T11:32:07;8.20;;;6.60;;
51566;SDS011;37657;53.182;5.638;2023-02-28T11:34:38;10.02;;;6.45;;
51566;SDS011;37657;53.182;5.638;2023-02-28T11:37:05;9.57;;;6.07;;
51566;SDS011;37657;53.182;5.638;2023-02-28T11:39:36;7.13;;;5.60;;
51566;SDS011;37657;53.182;5.638;2023-02-28T11:47:33;6.70;;;5.18;;
51566;SDS011;37657;53.182;5.638;2023-02-28T12:03:16;8.32;;;6.50;;
51566;SDS011;37657;53.182;5.638;2023-02-28T12:08:40;10.18;;;6.75;;
51566;SDS011;37657;53.182;5.638;2023-02-28T12:13:58;10.13;;;6.57;;
51566;SDS011;37657;53.182;5.638;2023-02-28T12:16:53;6.00;;;5.13;;
51566;SDS011;37657;53.182;5.638;2023-02-28T12:27:13;6.45;;;5.45;;
51566;SDS011;37657;53.182;5.638;2023-02-28T12:29:47;8.82;;;5.63;;
51566;SDS011;37657;53.182;5.638;2023-02-28T12:32:32;11.95;;;6.78;;
51566;SDS011;37657;53.182;5.638;2023-02-28T12:37:36;6.88;;;4.97;;
51566;SDS011;37657;53.182;5.638;2023-02-28T12:40:41;7.28;;;6.32;;
51566;SDS011;37657;53.182;5.638;2023-02-28T12:42:55;6.22;;;4.75;;
51566;SDS011;37657;53.182;5.638;2023-02-28T12:48:08;6.32;;;4.97;;
51566;SDS011;37657;53.182;5.638;2023-02-28T12:50:38;9.82;;;5.97;;
51566;SDS011;37657;53.182;5.638;2023-02-28T12:53:18;7.25;;;5.80;;
51566;SDS011;37657;53.182;5.638;2023-02-28T12:56:14;6.13;;;5.28;;
51566;SDS011;37657;53.182;5.638;2023-02-28T12:58:58;5.68;;;4.40;;
51566;SDS011;37657;53.182;5.638;2023-02-28T13:09:53;5.97;;;4.15;;
51566;SDS011;37657;53.182;5.638;2023-02-28T13:12:21;4.20;;;3.80;;
51566;SDS011;37657;53.182;5.638;2023-02-28T13:14:48;7.25;;;5.28;;
51566;SDS011;37657;53.182;5.638;2023-02-28T13:17:18;7.28;;;4.75;;
51566;SDS011;37657;53.182;5.638;2023-02-28T13:22:39;5.60;;;4.45;;
51566;SDS011;37657;53.182;5.638;2023-02-28T13:27:58;8.20;;;5.65;;
51566;SDS011;37657;53.182;5.638;2023-02-28T13:46:28;7.82;;;5.63;;
51566;SDS011;37657;53.182;5.638;2023-02-28T13:48:55;8.85;;;6.43;;
51566;SDS011;37657;53.182;5.638;2023-02-28T13:51:28;9.65;;;7.47;;
51566;SDS011;37657;53.182;5.638;2023-02-28T13:57:04;7.72;;;5.97;;
51566;SDS011;37657;53.182;5.638;2023-02-28T13:59:46;6.30;;;4.43;;
51566;SDS011;37657;53.182;5.638;2023-02-28T14:02:50;4.45;;;3.85;;
51566;SDS011;37657;53.182;5.638;2023-02-28T14:05:21;7.03;;;4.22;;
51566;SDS011;37657;53.182;5.638;2023-02-28T14:07:52;7.43;;;5.30;;
51566;SDS011;37657;53.182;5.638;2023-02-28T14:10:32;10.23;;;6.97;;
51566;SDS011;37657;53.182;5.638;2023-02-28T14:16:16;7.03;;;5.53;;
51566;SDS011;37657;53.182;5.638;2023-02-28T14:18:56;6.20;;;4.57;;
51566;SDS011;37657;53.182;5.638;2023-02-28T14:21:26;5.38;;;4.47;;
51566;SDS011;37657;53.182;5.638;2023-02-28T14:27:00;5.80;;;4.55;;
51566;SDS011;37657;53.182;5.638;2023-02-28T14:35:29;7.28;;;5.10;;
51566;SDS011;37657;53.182;5.638;2023-02-28T14:38:14;7.68;;;5.38;;
51566;SDS011;37657;53.182;5.638;2023-02-28T14:40:46;6.57;;;5.35;;
51566;SDS011;37657;53.182;5.638;2023-02-28T14:43:25;7.13;;;4.53;;
51566;SDS011;37657;53.182;5.638;2023-02-28T14:45:53;8.95;;;6.28;;
51566;SDS011;37657;53.182;5.638;2023-02-28T14:48:22;5.20;;;4.00;;
51566;SDS011;37657;53.182;5.638;2023-02-28T14:50:51;6.70;;;4.72;;
51566;SDS011;37657;53.182;5.638;2023-02-28T14:53:18;5.85;;;4.90;;
51566;SDS011;37657;53.182;5.638;2023-02-28T14:55:46;7.53;;;5.30;;
51566;SDS011;37657;53.182;5.638;2023-02-28T14:58:24;5.15;;;4.47;;
51566;SDS011;37657;53.182;5.638;2023-02-28T15:01:03;8.48;;;6.75;;
51566;SDS011;37657;53.182;5.638;2023-02-28T15:03:34;8.05;;;5.22;;
51566;SDS011;37657;53.182;5.638;2023-02-28T15:06:12;8.27;;;6.55;;
51566;SDS011;37657;53.182;5.638;2023-02-28T15:08:39;6.28;;;5.68;;
51566;SDS011;37657;53.182;5.638;2023-02-28T15:11:05;6.43;;;5.47;;
51566;SDS011;37657;53.182;5.638;2023-02-28T15:13:36;9.00;;;5.05;;
51566;SDS011;37657;53.182;5.638;2023-02-28T15:16:06;8.55;;;7.18;;
51566;SDS011;37657;53.182;5.638;2023-02-28T15:21:17;5.75;;;5.05;;
51566;SDS011;37657;53.182;5.638;2023-02-28T15:23:50;7.55;;;6.38;;
51566;SDS011;37657;53.182;5.638;2023-02-28T15:26:22;9.35;;;6.72;;
51566;SDS011;37657;53.182;5.638;2023-02-28T15:28:59;11.23;;;6.55;;
51566;SDS011;37657;53.182;5.638;2023-02-28T15:31:27;6.55;;;5.90;;
51566;SDS011;37657;53.182;5.638;2023-02-28T15:33:56;13.35;;;6.88;;
51566;SDS011;37657;53.182;5.638;2023-02-28T15:36:28;6.95;;;5.78;;
51566;SDS011;37657;53.182;5.638;2023-02-28T15:38:56;7.38;;;6.53;;
51566;SDS011;37657;53.182;5.638;2023-02-28T15:41:27;7.32;;;5.43;;
51566;SDS011;37657;53.182;5.638;2023-02-28T15:46:55;7.13;;;6.00;;
51566;SDS011;37657;53.182;5.638;2023-02-28T15:49:30;7.18;;;5.50;;
51566;SDS011;37657;53.182;5.638;2023-02-28T15:52:04;6.53;;;5.82;;
51566;SDS011;37657;53.182;5.638;2023-02-28T15:54:32;11.95;;;7.50;;
51566;SDS011;37657;53.182;5.638;2023-02-28T15:57:12;10.02;;;6.63;;
51566;SDS011;37657;53.182;5.638;2023-02-28T15:59:45;8.18;;;6.97;;
51566;SDS011;37657;53.182;5.638;2023-02-28T16:02:18;8.52;;;5.72;;
51566;SDS011;37657;53.182;5.638;2023-02-28T16:05:02;9.02;;;6.70;;
51566;SDS011;37657;53.182;5.638;2023-02-28T16:07:45;9.45;;;7.28;;
51566;SDS011;37657;53.182;5.638;2023-02-28T16:10:13;13.07;;;7.57;;
51566;SDS011;37657;53.182;5.638;2023-02-28T16:12:39;7.50;;;6.38;;
51566;SDS011;37657;53.182;5.638;2023-02-28T16:15:07;9.10;;;6.97;;
51566;SDS011;37657;53.182;5.638;2023-02-28T16:17:41;8.13;;;7.03;;
51566;SDS011;37657;53.182;5.638;2023-02-28T16:20:14;10.30;;;8.18;;
51566;SDS011;37657;53.182;5.638;2023-02-28T16:22:51;9.05;;;6.47;;
51566;SDS011;37657;53.182;5.638;2023-02-28T16:25:19;13.70;;;9.23;;
51566;SDS011;37657;53.182;5.638;2023-02-28T16:27:47;9.43;;;8.35;;
51566;SDS011;37657;53.182;5.638;2023-02-28T16:30:24;9.35;;;7.75;;
51566;SDS011;37657;53.182;5.638;2023-02-28T16:32:51;10.60;;;7.63;;
51566;SDS011;37657;53.182;5.638;2023-02-28T16:35:19;11.85;;;8.30;;
51566;SDS011;37657;53.182;5.638;2023-02-28T16:37:45;10.63;;;9.40;;
51566;SDS011;37657;53.182;5.638;2023-02-28T16:40:21;12.77;;;8.00;;
51566;SDS011;37657;53.182;5.638;2023-02-28T16:42:50;9.90;;;8.38;;
51566;SDS011;37657;53.182;5.638;2023-02-28T16:45:19;10.05;;;9.05;;
51566;SDS011;37657;53.182;5.638;2023-02-28T16:47:47;8.60;;;7.63;;
51566;SDS011;37657;53.182;5.638;2023-02-28T16:50:14;9.52;;;8.63;;
51566;SDS011;37657;53.182;5.638;2023-02-28T16:52:42;8.65;;;7.82;;
51566;SDS011;37657;53.182;5.638;2023-02-28T16:55:07;11.60;;;8.00;;
51566;SDS011;37657;53.182;5.638;2023-02-28T16:57:33;7.72;;;7.03;;
51566;SDS011;37657;53.182;5.638;2023-02-28T16:59:59;9.90;;;8.00;;
51566;SDS011;37657;53.182;5.638;2023-02-28T17:02:24;10.45;;;8.82;;
51566;SDS011;37657;53.182;5.638;2023-02-28T17:04:50;9.73;;;8.63;;
51566;SDS011;37657;53.182;5.638;2023-02-28T17:07:16;8.85;;;7.05;;
51566;SDS011;37657;53.182;5.638;2023-02-28T17:09:42;9.13;;;7.38;;
51566;SDS011;37657;53.182;5.638;2023-02-28T17:12:08;9.68;;;8.77;;
51566;SDS011;37657;53.182;5.638;2023-02-28T17:14:34;10.32;;;8.93;;
51566;SDS011;37657;53.182;5.638;2023-02-28T17:17:00;11.43;;;9.20;;